Πληροφορίες Meteoalarm


Οι άλλοι ιστότοποί μου:

PWS_Dashboardsykiaweather.alinos.eu/pwsWD/

SYKIA METEOTEMPLATEsykiameteo.alinos.eu

alinos.eualinos.eu



Αναφορές γειτονικών METAR

   
LGEL - Elefsis (hel-Afb, Greece
Απόσταση από τον σταθμό: Α 77 km
Ενημερώθηκε: 27-05-2024 20:50
Διάσπαρτα νέφη  
Διάσπαρτα νέφη  
   Ανεμος: ΒΒΔ 9.3 km/h
Ανεμος: ΒΒΔ 9.3 km/h
Θερμοκρασία: 23°C
Σημείο Δρόσου: 3°C
Υγρασία: 27%
Βαρόμετρο: 1015 hPa
Νεφώσεις: Διάσπαρτα νέφη
Ορατότητα: Ανω τών 10 km
Στοιχεία νεφών: Διάσπαρτα νέφη 2500 ft
LGEL 271750Z 33005KT 9999 FEW025 23/03 Q1015
LGRX - Araxos (civ/Afb), Greece
Απόσταση από τον σταθμό: Δ 110 km
Ενημερώθηκε: 27-05-2024 20:50
Διάσπαρτα νέφη  
Διάσπαρτα νέφη  
   Ανεμος: μεταβλητός 5.6 km/h
Ανεμος: μεταβλητός 5.6 km/h
Θερμοκρασία: 22°C
Σημείο Δρόσου: 11°C
Υγρασία: 50%
Βαρόμετρο: 1015 hPa
Νεφώσεις: Διάσπαρτα νέφη
Ορατότητα: Ανω τών 10 km
Στοιχεία νεφών: Διάσπαρτα νέφη 2000 ft
LGRX 271750Z VRB03KT 9999 FEW020 22/11 Q1015
LGAV - Athens/Elef-Ven, Greece
Απόσταση από τον σταθμό: Α 113 km
Ενημερώθηκε: 27-05-2024 20:50
Διάσπαρτα νέφη  
Διάσπαρτα νέφη  
   Ανεμος: μεταβλητός 5.6 km/h
Ανεμος: μεταβλητός 5.6 km/h
Θερμοκρασία: 20°C
Σημείο Δρόσου: 7°C
Υγρασία: 43%
Βαρόμετρο: 1015 hPa
Νεφώσεις: Διάσπαρτα νέφη
Ορατότητα: Ανω τών 10 km
Στοιχεία νεφών: Διάσπαρτα νέφη 3000 ft
LGAV 271750Z VRB03KT 9999 FEW030 20/07 Q1015 NOSIG
LGAD - Andravida (civ/A, Greece
Απόσταση από τον σταθμό: Δ 124 km
Ενημερώθηκε: 27-05-2024 20:50
Διάσπαρτα νέφη  
Διάσπαρτα νέφη  
   Ανεμος: ΒΔ 11.1 km/h
Ανεμος: ΒΔ 11.1 km/h
Θερμοκρασία: 21°C
Σημείο Δρόσου: 15°C
Υγρασία: 69%
Βαρόμετρο: 1015 hPa
Νεφώσεις: Διάσπαρτα νέφη
Ορατότητα: Ανω τών 10 km
Στοιχεία νεφών: Διάσπαρτα νέφη 2500 ft
LGAD 271750Z 31006KT 9999 FEW025 21/15 Q1015
LGKL - Kalamata (hel-Af, Greece
Απόσταση από τον σταθμό: ΝΝΔ 124 km
Ενημερώθηκε: 27-05-2024 20:50
Διάσπαρτα νέφη  
Διάσπαρτα νέφη  
   Ανεμος: μεταβλητός 3.7 km/h
Ανεμος: μεταβλητός 3.7 km/h
Θερμοκρασία: 20°C
Σημείο Δρόσου: 14°C
Υγρασία: 69%
Βαρόμετρο: 1015 hPa
Νεφώσεις: Διάσπαρτα νέφη
Ορατότητα: Ανω τών 10 km
Στοιχεία νεφών: Διάσπαρτα νέφη 3500 ft
LGKL 271750Z VRB02KT 9999 FEW035 20/14 Q1015
LGBL - Nea Anchialos, Greece
Απόσταση από τον σταθμό: Β 129 km
Ενημερώθηκε: 27-05-2024 20:50
Αίθριος  
Αίθριος  
   Ανεμος: ΒΑ 7.4 km/h
Ανεμος: ΒΑ 7.4 km/h
Θερμοκρασία: 21°C
Σημείο Δρόσου: 16°C
Υγρασία: 73%
Βαρόμετρο: 1015 hPa
Ορατότητα: Ανω τών 10 km
Στοιχεία νεφών: Αίθριος
LGBL 271750Z 05004KT CAVOK 21/16 Q1015

Αρχική γραφή από  Saratoga-weather.org Προσαρμογή στον ιστότοπο από  Weerstation Leuven

Βλέπε επίσης τις ενημερώσεις τού σταθμού μας στα παρακάτω δίκτυα:

European Weather Network

Weather Underground

AWEKAS

Citizen Weather Observer Program (CWOP)

UK Metoffice

Equipment we use:

Μετεωρολογικός σταθμός
Davis Wireless Vantage Pro2

Davis Wireless Vantage Pro2